Putney, Vermont
Current Conditions -  °F | °C
As of 5:15 AM on Monday 26 Jan 2015 (Local Time) from KEEN Reporting Station
Clear Clear  
Wind Chill: -4°   Ceiling: Unl
Heat Index:   Visibility: 10mi
Dew Point: -4°   Wind: 8mph
Humidity: 57%   Direction: 20°NNE
Pressure: 30.08"   Gusts: NA
Location:  42.97°N, 72.52°W
Report Text: KEEN 261015Z AUTO 02007KT 10SM CLR M13/M20 A3008 RMK AO1
Loading
Personal Weather Stations






























Interactive Weather Map New forecast layout! Learn more

10-Day Weather Forecast

Advertisements
Track Severe Weather on mobile